Time;durP1;ratioP1;P1;durP2;ratioP2;P2;SDS_P1;SDS_P2;PMS_P1;PMS_P2;Temp;Humidity;BMP_temperature;BMP_pressure;BME280_temperature;BME280_humidity;BME280_pressure;Samples;Min_cycle;Max_cycle;Signal;HPM_P1;HPM_P2
2022/06/01 00:05:57;;;;;;;;;;;;;;;11.99;100.00;98841.13;5087996;28;19924;-82
2022/06/01 00:08:24;;;;;;;;;;;;;;;12.34;100.00;98835.38;5092078;28;19929;-82
2022/06/01 00:10:53;;;;;;;;;;;;;;;12.20;100.00;98830.19;5076819;28;19924;-82
2022/06/01 00:13:26;;;;;;;;;;;;;;;12.19;100.00;98834.19;5076782;28;19937;-82
2022/06/01 00:15:54;;;;;;;;;;;;;;;12.15;100.00;98839.09;5042283;28;20372;-82
2022/06/01 00:18:41;;;;;;;;;;;;;;;11.78;100.00;98845.25;5061723;28;20410;-83
2022/06/01 00:21:08;;;;;;;;;;;;;;;11.97;100.00;98844.38;5058796;28;19932;-83
2022/06/01 00:23:36;;;;;;;;;;;;;;;11.99;100.00;98841.94;5058350;28;20383;-83
2022/06/01 00:26:03;;;;;;;;;;;;;;;12.32;100.00;98837.84;5091862;28;19931;-83
2022/06/01 00:28:31;;;;;;;;;;;;;;;12.36;100.00;98832.94;5041853;28;19924;-82
2022/06/01 00:31:03;;;;;;;;;;;;;;;11.68;100.00;98837.09;5091187;28;19925;-82
2022/06/01 00:33:31;;;;;;;;;;;;;;;11.76;100.00;98838.50;5055699;28;19924;-83
2022/06/01 00:36:23;;;;;;;;;;;;;;;11.88;100.00;98835.78;5073654;28;19924;-82
2022/06/01 00:39:11;;;;;;;;;;;;;;;12.15;100.00;98835.50;5056310;28;19925;-82
2022/06/01 00:41:44;;;;;;;;;;;;;;;12.28;100.00;98837.16;5041312;28;20018;-82
2022/06/01 00:44:12;;;;;;;;;;;;;;;12.26;100.00;98839.63;5091485;28;19932;-82
2022/06/01 00:46:47;;;;;;;;;;;;;;;11.87;100.00;98828.63;5075736;28;20565;-82
2022/06/01 00:49:33;;;;;;;;;;;;;;;11.72;100.00;98835.78;5076124;28;20011;-82
2022/06/01 00:52:01;;;;;;;;;;;;;;;11.72;100.00;98840.59;5057614;28;19925;-82
2022/06/01 00:54:29;;;;;;;;;;;;;;;11.98;100.00;98834.72;5075582;28;19924;-82
2022/06/01 00:56:58;;;;;;;;;;;;;;;12.05;100.00;98831.78;5041437;28;20314;-85
2022/06/01 00:59:45;;;;;;;;;;;;;;;11.83;100.00;98827.91;5046434;28;19970;-85
2022/06/01 01:02:31;;;;;;;;;;;;;;;12.22;100.00;98832.53;5060566;28;19963;-84
2022/06/01 01:05:00;;;;;;;;;;;;;;;12.21;100.00;98831.75;5074299;28;20368;-83
2022/06/01 01:07:29;;;;;;;;;;;;;;;12.47;100.00;98833.44;5042333;28;19925;-83
2022/06/01 01:10:05;;;;;;;;;;;;;;;12.27;100.00;98832.78;5058723;28;19924;-83
2022/06/01 01:12:56;;;;;;;;;;;;;;;12.21;100.00;98828.13;5059924;28;19924;-83
2022/06/01 01:15:40;;;;;;;;;;;;;;;11.94;100.00;98834.03;5074372;28;19987;-83
2022/06/01 01:18:10;;;;;;;;;;;;;;;12.16;100.00;98835.06;5058844;28;20328;-83
2022/06/01 01:20:48;;;;;;;;;;;;;;;11.75;100.00;98837.72;5090043;28;20013;-83
2022/06/01 01:23:22;;;;;;;;;;;;;;;11.67;100.00;98836.31;5053934;28;19948;-82
2022/06/01 01:25:51;;;;;;;;;;;;;;;11.84;100.00;98840.72;5057574;28;19978;-83
2022/06/01 01:28:35;;;;;;;;;;;;;;;11.92;100.00;98832.91;5048984;28;20144;-82
2022/06/01 01:31:27;;;;;;;;;;;;;;;11.95;100.00;98832.03;5060611;28;20016;-82
2022/06/01 01:34:14;;;;;;;;;;;;;;;11.99;100.00;98827.94;5044115;28;19973;-82
2022/06/01 01:37:21;;;;;;;;;;;;;;;11.64;100.00;98825.19;5085788;28;19930;-82
2022/06/01 01:39:52;;;;;;;;;;;;;;;11.98;100.00;98823.53;5074762;28;20384;-83
2022/06/01 01:42:20;;;;;;;;;;;;;;;11.72;100.00;98827.38;5074693;28;19925;-82
2022/06/01 01:45:19;;;;;;;;;;;;;;;11.95;100.00;98821.59;5044466;28;19932;-83
2022/06/01 01:47:58;;;;;;;;;;;;;;;12.13;100.00;98819.13;5039870;28;20304;-82
2022/06/01 01:50:31;;;;;;;;;;;;;;;12.37;100.00;98809.28;5024521;28;20395;-82
2022/06/01 01:53:00;;;;;;;;;;;;;;;12.17;100.00;98819.06;5057366;28;20023;-82
2022/06/01 01:55:39;;;;;;;;;;;;;;;12.31;100.00;98821.50;5057671;28;19928;-82
2022/06/01 01:58:32;;;;;;;;;;;;;;;11.92;100.00;98816.13;5055037;28;20280;-82
2022/06/01 02:01:19;;;;;;;;;;;;;;;12.28;100.00;98814.72;4993247;28;20021;-82
2022/06/01 02:06:03;;;;;;;;;;;;;;;12.31;100.00;98813.09;4992522;28;19960;-82
2022/06/01 02:07:00;;;;;;;;;;;;;;;12.27;100.00;98807.56;4993011;28;19925;-83
2022/06/01 02:12:41;;;;;;;;;;;;;;;12.18;100.00;98815.81;4977065;28;19926;-82
2022/06/01 02:15:28;;;;;;;;;;;;;;;11.71;100.00;98820.22;4993020;28;19932;-82
2022/06/01 02:18:22;;;;;;;;;;;;;;;11.79;100.00;98826.44;4979625;28;20012;-82
2022/06/01 02:21:12;;;;;;;;;;;;;;;11.69;100.00;98822.66;4986870;28;19926;-82
2022/06/01 02:24:08;;;;;;;;;;;;;;;11.62;100.00;98822.84;4973204;28;20373;-82
2022/06/01 02:26:43;;;;;;;;;;;;;;;11.97;100.00;98827.56;4973259;28;19933;-82
2022/06/01 02:29:34;;;;;;;;;;;;;;;11.89;100.00;98820.56;4946590;28;19933;-82
2022/06/01 02:32:31;;;;;;;;;;;;;;;11.96;100.00;98819.59;4950253;28;19926;-83
2022/06/01 02:35:24;;;;;;;;;;;;;;;11.84;100.00;98815.50;4956349;28;19965;-82
2022/06/01 02:37:55;;;;;;;;;;;;;;;11.95;100.00;98824.41;5007107;28;20002;-82
2022/06/01 02:40:23;;;;;;;;;;;;;;;12.09;100.00;98824.06;5052782;28;19931;-82
2022/06/01 02:42:52;;;;;;;;;;;;;;;12.02;100.00;98818.66;5053962;28;20443;-82
2022/06/01 02:45:21;;;;;;;;;;;;;;;11.94;100.00;98820.03;5036133;28;19925;-82
2022/06/01 02:47:50;;;;;;;;;;;;;;;11.64;100.00;98825.19;5036555;28;19929;-85
2022/06/01 02:50:38;;;;;;;;;;;;;;;11.47;100.00;98818.78;5039032;28;19956;-84
2022/06/01 02:53:05;;;;;;;;;;;;;;;11.35;100.00;98815.84;5031718;28;20003;-83
2022/06/01 02:55:50;;;;;;;;;;;;;;;11.67;100.00;98819.53;5031832;28;20420;-83
2022/06/01 02:58:18;;;;;;;;;;;;;;;11.58;100.00;98810.13;5015708;28;19925;-83
2022/06/01 03:00:46;;;;;;;;;;;;;;;11.24;100.00;98816.09;5016871;28;19929;-83
2022/06/01 03:03:39;;;;;;;;;;;;;;;10.74;100.00;98810.78;5055874;28;19925;-82
2022/06/01 03:06:08;;;;;;;;;;;;;;;10.86;100.00;98812.13;5039664;28;19925;-82
2022/06/01 03:08:35;;;;;;;;;;;;;;;10.66;100.00;98806.56;5039226;28;19929;-82
2022/06/01 03:11:37;;;;;;;;;;;;;;;10.74;100.00;98801.63;5050122;28;19924;-82
2022/06/01 03:14:16;;;;;;;;;;;;;;;11.16;100.00;98803.53;5040467;28;20131;-82
2022/06/01 03:16:43;;;;;;;;;;;;;;;10.94;100.00;98799.59;5038235;28;19970;-82
2022/06/01 03:19:26;;;;;;;;;;;;;;;10.96;100.00;98802.75;5055053;28;19929;-82
2022/06/01 03:22:15;;;;;;;;;;;;;;;11.02;100.00;98803.81;5054229;28;19929;-82
2022/06/01 03:24:46;;;;;;;;;;;;;;;11.03;100.00;98810.22;5043466;28;19928;-82
2022/06/01 03:27:32;;;;;;;;;;;;;;;11.16;100.00;98814.69;5041677;28;19932;-82
2022/06/01 03:30:23;;;;;;;;;;;;;;;10.74;100.00;98812.78;5028458;28;19925;-82
2022/06/01 03:32:52;;;;;;;;;;;;;;;11.23;100.00;98828.53;5022342;28;19925;-83
2022/06/01 03:35:40;;;;;;;;;;;;;;;11.17;100.00;98830.25;5056334;28;19924;-82
2022/06/01 03:38:07;;;;;;;;;;;;;;;11.36;100.00;98832.19;5056069;28;19924;-82
2022/06/01 03:40:37;;;;;;;;;;;;;;;11.33;100.00;98835.09;5039283;28;20299;-82
2022/06/01 03:43:05;;;;;;;;;;;;;;;11.10;100.00;98833.22;5072595;28;19925;-82
2022/06/01 03:48:31;;;;;;;;;;;;;;;11.61;100.00;98835.22;5072651;28;19928;-82
2022/06/01 03:51:21;;;;;;;;;;;;;;;11.83;100.00;98832.75;5042655;28;19924;-82
2022/06/01 03:53:48;;;;;;;;;;;;;;;11.81;100.00;98835.97;5055860;28;20307;-82
2022/06/01 03:56:22;;;;;;;;;;;;;;;11.95;100.00;98837.63;5056759;28;19955;-82
2022/06/01 03:58:52;;;;;;;;;;;;;;;11.66;100.00;98834.72;5040050;28;20273;-82
2022/06/01 04:01:40;;;;;;;;;;;;;;;12.00;100.00;98842.69;5055023;28;19932;-82
2022/06/01 04:04:14;;;;;;;;;;;;;;;11.94;100.00;98839.66;5054623;28;19934;-83
2022/06/01 04:06:41;;;;;;;;;;;;;;;11.57;100.00;98840.09;5054567;28;19925;-82
2022/06/01 04:09:22;;;;;;;;;;;;;;;11.52;100.00;98835.03;5037487;28;19925;-82
2022/06/01 04:12:10;;;;;;;;;;;;;;;11.75;100.00;98837.72;5026546;28;19925;-82
2022/06/01 04:14:56;;;;;;;;;;;;;;;11.56;100.00;98846.13;5054603;28;20033;-82
2022/06/01 04:17:29;;;;;;;;;;;;;;;11.56;100.00;98849.72;5037864;28;19925;-82
2022/06/01 04:19:58;;;;;;;;;;;;;;;11.72;100.00;98835.78;5021918;28;19948;-82
2022/06/01 04:22:25;;;;;;;;;;;;;;;11.64;100.00;98853.97;5054102;28;19925;-83
2022/06/01 04:24:53;;;;;;;;;;;;;;;11.45;100.00;98851.97;5053666;28;19931;-82
2022/06/01 04:27:29;;;;;;;;;;;;;;;11.30;100.00;98849.97;5053492;28;19932;-83
2022/06/01 04:29:56;;;;;;;;;;;;;;;11.63;100.00;98852.38;5054128;28;19935;-82
2022/06/01 04:32:47;;;;;;;;;;;;;;;11.92;100.00;98847.69;5049158;28;20380;-83
2022/06/01 04:35:37;;;;;;;;;;;;;;;11.87;100.00;98856.63;5053585;28;19925;-83
2022/06/01 04:38:26;;;;;;;;;;;;;;;11.93;100.00;98859.69;5039799;28;20408;-82
2022/06/01 04:40:54;;;;;;;;;;;;;;;11.61;100.00;98866.00;5052403;28;19925;-83
2022/06/01 04:43:22;;;;;;;;;;;;;;;11.93;100.00;98860.47;5020683;28;19925;-83
2022/06/01 04:45:52;;;;;;;;;;;;;;;11.95;100.00;98862.84;5053419;28;20028;-83
2022/06/01 04:48:28;;;;;;;;;;;;;;;12.15;100.00;98861.50;5054393;28;20292;-83
2022/06/01 04:51:15;;;;;;;;;;;;;;;12.34;100.00;98859.81;5053920;28;19933;-83
2022/06/01 04:53:46;;;;;;;;;;;;;;;12.09;100.00;98868.88;5038810;28;19936;-83
2022/06/01 04:56:14;;;;;;;;;;;;;;;11.83;100.00;98866.34;5056711;28;19933;-83
2022/06/01 04:58:42;;;;;;;;;;;;;;;11.82;100.00;98873.94;5057989;28;19932;-83
2022/06/01 05:01:11;;;;;;;;;;;;;;;12.21;100.00;98876.56;5075662;28;20326;-82
2022/06/01 05:03:59;;;;;;;;;;;;;;;11.97;100.00;98869.56;5074201;28;19931;-83
2022/06/01 05:06:37;;;;;;;;;;;;;;;11.88;100.00;98875.00;5057488;28;20299;-85
2022/06/01 05:09:06;;;;;;;;;;;;;;;12.01;100.00;98869.50;5057785;28;19966;-84
2022/06/01 05:11:34;;;;;;;;;;;;;;;11.87;100.00;98878.22;5073867;28;19931;-83
2022/06/01 05:14:22;;;;;;;;;;;;;;;11.85;100.00;98881.47;5060602;28;19925;-83
2022/06/01 05:16:49;;;;;;;;;;;;;;;11.69;100.00;98873.03;5073723;28;19925;-83
2022/06/01 05:19:37;;;;;;;;;;;;;;;12.00;100.00;98885.50;5047183;28;19925;-83
2022/06/01 05:22:05;;;;;;;;;;;;;;;12.23;100.00;98879.72;5057471;28;19975;-83
2022/06/01 05:24:52;;;;;;;;;;;;;;;12.00;100.00;98887.50;5045041;28;20007;-76
2022/06/01 05:27:21;;;;;;;;;;;;;;;11.70;100.00;98897.00;5074717;28;19925;-81
2022/06/01 05:30:00;;;;;;;;;;;;;;;11.20;100.00;98895.69;5070949;28;19970;-81
2022/06/01 05:32:47;;;;;;;;;;;;;;;11.70;100.00;98905.41;5072778;28;19932;-83
2022/06/01 05:35:33;;;;;;;;;;;;;;;11.75;100.00;98899.31;5067789;28;19931;-83
2022/06/01 05:38:11;;;;;;;;;;;;;;;11.58;100.00;98900.47;5043900;28;19931;-83
2022/06/01 05:40:55;;;;;;;;;;;;;;;11.68;100.00;98907.06;5059526;28;19959;-83
2022/06/01 05:43:45;;;;;;;;;;;;;;;11.98;100.00;98896.31;5073975;28;20344;-84
2022/06/01 05:46:35;;;;;;;;;;;;;;;11.92;100.00;98895.28;5046440;28;19932;-88
2022/06/01 05:49:07;;;;;;;;;;;;;;;11.46;100.00;98891.94;5065300;28;19931;-80
2022/06/01 05:51:43;;;;;;;;;;;;;;;12.06;100.00;98894.16;5067171;28;19924;-80
2022/06/01 05:54:19;;;;;;;;;;;;;;;11.68;100.00;98896.66;5065655;28;20417;-79
2022/06/01 05:56:57;;;;;;;;;;;;;;;11.67;100.00;98897.88;5072195;28;19931;-80
2022/06/01 05:59:42;;;;;;;;;;;;;;;11.48;100.00;98892.31;5059736;28;19931;-79
2022/06/01 06:02:11;;;;;;;;;;;;;;;12.41;100.00;98894.06;5061738;28;19925;-83
2022/06/01 06:04:38;;;;;;;;;;;;;;;12.47;100.00;98889.50;5056434;28;20011;-82
2022/06/01 06:07:28;;;;;;;;;;;;;;;12.38;100.00;98889.31;5046160;28;19925;-82
2022/06/01 06:10:16;;;;;;;;;;;;;;;12.33;100.00;98900.25;5057555;28;19935;-82
2022/06/01 06:13:05;;;;;;;;;;;;;;;12.37;100.00;98895.38;5072419;28;20055;-81
2022/06/01 06:15:33;;;;;;;;;;;;;;;12.37;100.00;98895.38;5072909;28;20280;-82
2022/06/01 06:18:00;;;;;;;;;;;;;;;12.48;100.00;98902.25;5055402;28;19955;-83
2022/06/01 06:20:28;;;;;;;;;;;;;;;13.02;100.00;98904.44;5071953;28;20375;-83
2022/06/01 06:22:56;;;;;;;;;;;;;;;12.69;100.00;98907.31;5039007;28;19931;-82
2022/06/01 06:25:29;;;;;;;;;;;;;;;12.88;100.00;98899.19;5055159;28;19924;-83
2022/06/01 06:27:58;;;;;;;;;;;;;;;12.73;100.00;98902.41;5071772;28;19959;-80
2022/06/01 06:30:29;;;;;;;;;;;;;;;13.11;100.00;98907.38;5055342;28;19929;-81
2022/06/01 06:32:57;;;;;;;;;;;;;;;12.68;100.00;98911.34;5068594;28;19924;-77
2022/06/01 06:35:25;;;;;;;;;;;;;;;12.82;100.00;98914.97;5071118;28;19929;-80
2022/06/01 06:37:52;;;;;;;;;;;;;;;13.13;100.00;98913.34;5070360;28;19947;-78
2022/06/01 06:40:19;;;;;;;;;;;;;;;13.30;100.00;98912.06;5055120;28;19924;-79
2022/06/01 06:42:47;;;;;;;;;;;;;;;13.61;100.00;98908.28;5054766;28;19935;-80
2022/06/01 06:45:14;;;;;;;;;;;;;;;13.78;100.00;98917.41;5071169;28;20011;-79
2022/06/01 06:48:09;;;;;;;;;;;;;;;14.09;100.00;98924.81;5044649;28;20502;-79
2022/06/01 06:50:36;;;;;;;;;;;;;;;14.36;100.00;98927.16;5071240;28;19924;-78
2022/06/01 06:55:29;;;;;;;;;;;;;;;13.96;100.00;98924.03;5131877;27;19919;-79
2022/06/01 06:58:16;;;;;;;;;;;;;;;13.53;100.00;98925.78;5132365;27;19923;-79
2022/06/01 07:00:48;;;;;;;;;;;;;;;13.67;100.00;98936.59;5131491;27;19927;-79
2022/06/01 07:03:17;;;;;;;;;;;;;;;13.76;100.00;98945.94;5131867;27;19923;-79
2022/06/01 07:08:30;;;;;;;;;;;;;;;14.29;100.00;98955.53;5131976;27;20093;-79
2022/06/01 07:11:00;;;;;;;;;;;;;;;13.86;100.00;98956.03;5132310;27;20022;-78
2022/06/01 07:13:32;;;;;;;;;;;;;;;14.20;100.00;98956.19;5132232;27;19951;-79
2022/06/01 07:16:04;;;;;;;;;;;;;;;14.23;100.00;98960.94;5112286;28;20379;-79
2022/06/01 07:18:31;;;;;;;;;;;;;;;13.91;100.00;98954.69;5130888;28;19923;-80
2022/06/01 07:20:58;;;;;;;;;;;;;;;14.55;100.00;98957.06;5132066;28;19943;-80
2022/06/01 07:23:42;;;;;;;;;;;;;;;14.44;100.00;98970.69;5129951;28;20359;-79
2022/06/01 07:26:12;;;;;;;;;;;;;;;14.34;100.00;98958.53;5130364;28;20407;-81
2022/06/01 07:28:39;;;;;;;;;;;;;;;14.42;100.00;98959.09;5130961;28;20367;-81
2022/06/01 07:31:07;;;;;;;;;;;;;;;15.24;100.00;98963.47;5131843;27;19923;-80
2022/06/01 07:33:58;;;;;;;;;;;;;;;14.83;100.00;98964.53;5130370;28;20018;-80
2022/06/01 07:36:35;;;;;;;;;;;;;;;14.79;100.00;98963.88;5129481;28;19924;-80
2022/06/01 07:44:43;;;;;;;;;;;;;;;15.20;100.00;98986.13;5129640;27;19928;-81
2022/06/01 07:47:11;;;;;;;;;;;;;;;14.81;100.00;98981.09;5112662;28;20386;-81
2022/06/01 07:50:01;;;;;;;;;;;;;;;15.10;100.00;98981.66;5095926;28;19923;-80
2022/06/01 07:52:48;;;;;;;;;;;;;;;14.76;100.00;98989.28;5129969;27;19974;-81
2022/06/01 07:55:15;;;;;;;;;;;;;;;14.69;100.00;98984.72;5128652;28;20371;-81
2022/06/01 07:57:42;;;;;;;;;;;;;;;15.16;100.00;98995.94;5130268;27;19930;-81
2022/06/01 08:00:13;;;;;;;;;;;;;;;15.13;100.00;98997.63;5129778;27;20030;-81
2022/06/01 08:02:45;;;;;;;;;;;;;;;14.99;100.00;98986.88;5129971;28;19930;-81
2022/06/01 08:05:33;;;;;;;;;;;;;;;14.06;100.00;98992.34;5123493;28;20052;-81
2022/06/01 08:08:00;;;;;;;;;;;;;;;14.04;100.00;98995.59;5116239;28;19923;-81
2022/06/01 08:10:32;;;;;;;;;;;;;;;14.38;100.00;99003.41;5114997;28;19935;-81
2022/06/01 08:13:11;;;;;;;;;;;;;;;14.60;100.00;98987.41;5099642;28;19931;-81
2022/06/01 08:15:46;;;;;;;;;;;;;;;15.17;100.00;98984.22;5115959;27;19931;-81
2022/06/01 08:18:15;;;;;;;;;;;;;;;15.67;100.00;98988.84;5115732;28;19955;-81
2022/06/01 08:20:42;;;;;;;;;;;;;;;15.81;100.00;98991.91;5113723;28;20271;-81
2022/06/01 08:23:12;;;;;;;;;;;;;;;14.79;100.00;98994.81;5114170;28;19928;-81
2022/06/01 08:25:40;;;;;;;;;;;;;;;14.68;100.00;99000.00;5097644;28;20375;-81
2022/06/01 08:28:08;;;;;;;;;;;;;;;14.89;100.00;99004.91;5097946;28;19924;-81
2022/06/01 08:30:36;;;;;;;;;;;;;;;14.71;100.00;99001.91;5097626;28;20233;-81
2022/06/01 08:33:07;;;;;;;;;;;;;;;14.61;100.00;99005.88;5114776;28;19923;-81
2022/06/01 08:35:36;;;;;;;;;;;;;;;15.15;100.00;99012.03;5115879;28;19924;-81
2022/06/01 08:38:05;;;;;;;;;;;;;;;15.57;100.00;99002.06;5097961;28;19924;-81
2022/06/01 08:40:34;;;;;;;;;;;;;;;17.25;100.00;99002.91;5114281;28;19928;-81
2022/06/01 08:43:07;;;;;;;;;;;;;;;18.08;100.00;98987.47;5097370;28;19935;-82
2022/06/01 08:45:36;;;;;;;;;;;;;;;17.60;100.00;98989.28;5114356;28;19924;-82
2022/06/01 08:48:06;;;;;;;;;;;;;;;17.14;100.00;99001.81;5114183;28;19973;-81
2022/06/01 08:50:52;;;;;;;;;;;;;;;16.35;100.00;99001.88;5115285;28;19930;-81
2022/06/01 08:53:20;;;;;;;;;;;;;;;16.50;100.00;99000.88;5113892;28;20124;-82
2022/06/01 08:55:47;;;;;;;;;;;;;;;16.79;100.00;99011.78;5114258;28;19923;-82
2022/06/01 08:58:16;;;;;;;;;;;;;;;17.95;100.00;99004.63;5097290;28;20102;-82
2022/06/01 09:00:47;;;;;;;;;;;;;;;16.60;100.00;99001.72;5111795;28;19924;-81
2022/06/01 09:03:27;;;;;;;;;;;;;;;15.79;100.00;99005.69;5115270;28;19927;-81
2022/06/01 09:06:19;;;;;;;;;;;;;;;16.65;100.00;99009.53;5097658;28;19923;-82
2022/06/01 09:08:51;;;;;;;;;;;;;;;16.41;100.00;99000.81;5114293;28;19958;-82
2022/06/01 09:11:26;;;;;;;;;;;;;;;16.10;100.00;99008.50;5097764;28;19956;-81
2022/06/01 09:13:53;;;;;;;;;;;;;;;17.32;100.00;99004.66;5079854;28;19973;-81
2022/06/01 09:16:23;;;;;;;;;;;;;;;17.11;100.00;98995.09;5113512;28;19924;-82
2022/06/01 09:18:52;;;;;;;;;;;;;;;17.75;100.00;98996.63;5095985;28;20436;-82
2022/06/01 09:24:34;;;;;;;;;;;;;;;17.62;100.00;98987.56;5051977;28;19932;-82
2022/06/01 09:27:06;;;;;;;;;;;;;;;17.33;100.00;98987.22;5035164;28;19929;-83
2022/06/01 09:29:47;;;;;;;;;;;;;;;16.78;100.00;98996.13;5051689;28;20022;-82
2022/06/01 09:32:41;;;;;;;;;;;;;;;15.89;100.00;98998.06;5051419;28;20406;-82
2022/06/01 09:35:11;;;;;;;;;;;;;;;15.98;100.00;99001.72;5051641;28;20415;-82
2022/06/01 09:37:42;;;;;;;;;;;;;;;15.02;100.00;99008.47;5051853;28;19932;-82
2022/06/01 09:40:20;;;;;;;;;;;;;;;14.84;100.00;99002.69;5051452;28;19980;-81
2022/06/01 09:42:50;;;;;;;;;;;;;;;14.77;100.00;99011.34;5034654;28;20014;-82
2022/06/01 09:45:24;;;;;;;;;;;;;;;14.77;100.00;99014.16;5051561;28;20022;-82
2022/06/01 09:47:52;;;;;;;;;;;;;;;15.30;100.00;99024.34;5018155;28;19931;-82
2022/06/01 09:50:21;;;;;;;;;;;;;;;16.52;100.00;99011.72;5034671;28;19932;-82
2022/06/01 09:52:49;;;;;;;;;;;;;;;16.74;100.00;99009.56;5050107;28;19924;-81
2022/06/01 09:55:19;;;;;;;;;;;;;;;16.15;100.00;99022.00;5088575;27;19927;-82
2022/06/01 09:57:59;;;;;;;;;;;;;;;16.10;100.00;99020.56;5114196;28;19923;-82
2022/06/01 10:06:30;;;;;;;;;;;;;;;17.06;100.00;99017.47;5114108;28;20329;-82
2022/06/01 10:09:00;;;;;;;;;;;;;;;17.29;100.00;99017.69;5112762;28;19931;-82
2022/06/01 10:11:28;;;;;;;;;;;;;;;17.29;100.00;99025.34;5112556;28;20057;-82
2022/06/01 10:14:05;;;;;;;;;;;;;;;17.77;100.00;99024.44;5095757;28;19923;-82
2022/06/01 10:16:46;;;;;;;;;;;;;;;17.33;100.00;99026.78;5113876;28;20034;-82
2022/06/01 10:19:17;;;;;;;;;;;;;;;17.53;100.00;99035.59;5112536;28;19924;-82
2022/06/01 10:21:56;;;;;;;;;;;;;;;17.69;100.00;99035.25;5110314;28;19985;-83
2022/06/01 10:24:54;;;;;;;;;;;;;;;17.58;100.00;99025.72;5112117;28;20347;-82
2022/06/01 10:27:24;;;;;;;;;;;;;;;17.76;100.00;99022.88;5095613;28;19931;-82
2022/06/01 10:30:12;;;;;;;;;;;;;;;17.06;100.00;99034.41;5112023;28;20409;-82
2022/06/01 10:32:43;;;;;;;;;;;;;;;16.81;100.00;99029.81;5109388;28;19924;-82
2022/06/01 10:35:10;;;;;;;;;;;;;;;16.37;100.00;99038.88;5112436;28;19924;-82
2022/06/01 10:37:51;;;;;;;;;;;;;;;16.08;100.00;99031.50;5096554;28;19928;-81
2022/06/01 10:40:51;;;;;;;;;;;;;;;15.50;100.00;99044.59;5098568;28;20303;-80
2022/06/01 10:43:22;;;;;;;;;;;;;;;15.32;100.00;99049.22;5112450;28;20020;-81
2022/06/01 10:46:00;;;;;;;;;;;;;;;15.63;100.00;99056.56;5112201;28;19973;-81
2022/06/01 10:48:36;;;;;;;;;;;;;;;15.62;100.00;99054.22;5112261;28;19928;-81
2022/06/01 10:51:09;;;;;;;;;;;;;;;15.66;100.00;99058.47;5112212;28;19950;-81
2022/06/01 10:53:59;;;;;;;;;;;;;;;15.32;100.00;99061.28;5094770;28;20436;-81
2022/06/01 10:56:27;;;;;;;;;;;;;;;15.95;100.00;99061.81;5113479;28;19961;-81
2022/06/01 10:58:56;;;;;;;;;;;;;;;15.93;100.00;99064.28;5113098;28;20298;-81
2022/06/01 11:01:41;;;;;;;;;;;;;;;16.39;100.00;99065.34;5112133;28;19955;-81
2022/06/01 11:04:48;;;;;;;;;;;;;;;16.63;100.00;99074.13;5097496;28;19986;-78
2022/06/01 11:07:20;;;;;;;;;;;;;;;16.98;100.00;99072.69;5111959;28;19958;-78
2022/06/01 11:10:00;;;;;;;;;;;;;;;17.13;100.00;99079.31;5113112;28;19969;-79
2022/06/01 11:12:40;;;;;;;;;;;;;;;16.82;100.00;99076.56;5112174;28;19924;-79
2022/06/01 11:15:10;;;;;;;;;;;;;;;16.79;100.00;99076.69;5111788;28;20298;-79
2022/06/01 11:17:44;;;;;;;;;;;;;;;17.06;100.00;99079.59;5111824;28;19963;-79
2022/06/01 11:20:35;;;;;;;;;;;;;;;17.47;100.00;99084.72;5077138;28;19931;-79
2022/06/01 11:23:10;;;;;;;;;;;;;;;17.80;100.00;99085.66;5111886;28;19938;-79
2022/06/01 11:26:21;;;;;;;;;;;;;;;17.51;100.00;99083.31;5112280;28;20379;-79
2022/06/01 11:28:55;;;;;;;;;;;;;;;17.75;100.00;99086.31;5112566;28;19930;-79
2022/06/01 11:31:30;;;;;;;;;;;;;;;17.50;100.00;99095.06;5111891;28;19923;-79
2022/06/01 11:34:05;;;;;;;;;;;;;;;17.83;100.00;99093.19;5107486;28;19924;-79
2022/06/01 11:36:50;;;;;;;;;;;;;;;17.34;100.00;99092.53;5112953;28;19924;-79
2022/06/01 11:39:33;;;;;;;;;;;;;;;17.21;100.00;99087.00;5109960;28;19924;-79
2022/06/01 11:42:13;;;;;;;;;;;;;;;17.05;100.00;99097.78;5097208;28;19923;-79
2022/06/01 11:45:13;;;;;;;;;;;;;;;16.67;100.00;99105.78;5116901;28;19950;-79
2022/06/01 11:47:50;;;;;;;;;;;;;;;16.74;100.00;99113.97;5061291;28;19963;-79
2022/06/01 11:50:24;;;;;;;;;;;;;;;17.08;100.00;99117.41;5116564;28;19931;-79
2022/06/01 11:53:12;;;;;;;;;;;;;;;17.10;100.00;99105.66;5099278;28;19924;-79
2022/06/01 11:55:42;;;;;;;;;;;;;;;17.08;100.00;99105.31;5116374;28;19927;-79
2022/06/01 11:58:11;;;;;;;;;;;;;;;16.92;100.00;99111.22;5115157;28;20001;-79
2022/06/01 12:00:47;;;;;;;;;;;;;;;16.52;100.00;99104.78;5113099;28;20263;-79
2022/06/01 12:03:15;;;;;;;;;;;;;;;16.38;100.00;99116.56;5115089;28;19939;-79
2022/06/01 12:05:58;;;;;;;;;;;;;;;16.18;100.00;99116.91;5116250;28;19924;-79
2022/06/01 12:08:36;;;;;;;;;;;;;;;15.80;100.00;99114.31;5116464;28;20022;-79
2022/06/01 12:11:09;;;;;;;;;;;;;;;15.98;100.00;99131.34;5115150;28;19931;-78
2022/06/01 12:13:40;;;;;;;;;;;;;;;16.27;100.00;99125.44;5098400;28;19953;-79
2022/06/01 12:16:17;;;;;;;;;;;;;;;16.07;100.00;99122.97;5114802;28;19923;-78
2022/06/01 12:19:06;;;;;;;;;;;;;;;15.84;100.00;99126.22;5097307;28;19983;-79
2022/06/01 12:21:36;;;;;;;;;;;;;;;15.44;100.00;99136.50;5097771;28;20019;-79
2022/06/01 12:30:45;;;;;;;;;;;;;;;15.32;100.00;99153.41;5114842;28;19931;-79
2022/06/01 12:33:33;;;;;;;;;;;;;;;15.33;100.00;99152.16;5115025;28;19934;-78
2022/06/01 12:36:06;;;;;;;;;;;;;;;15.69;100.00;99153.31;5115543;28;20355;-78
2022/06/01 12:38:47;;;;;;;;;;;;;;;16.85;100.00;99139.72;5115425;28;19924;-79
2022/06/01 12:41:18;;;;;;;;;;;;;;;16.79;100.00;99133.13;5113726;28;19923;-79
2022/06/01 12:43:46;;;;;;;;;;;;;;;17.35;100.00;99127.97;5097472;28;20056;-78
2022/06/01 12:46:24;;;;;;;;;;;;;;;17.87;100.00;99133.41;5114657;28;19928;-79
2022/06/01 12:49:12;;;;;;;;;;;;;;;18.23;100.00;99139.03;5114215;28;19923;-79
2022/06/01 12:51:41;;;;;;;;;;;;;;;18.18;100.00;99136.03;5115072;28;20302;-79
2022/06/01 12:54:09;;;;;;;;;;;;;;;17.57;100.00;99142.78;5115153;27;20019;-78
2022/06/01 12:56:46;;;;;;;;;;;;;;;17.29;100.00;99141.94;5115076;28;19969;-78
2022/06/01 12:59:14;;;;;;;;;;;;;;;17.64;100.00;99143.28;5114157;28;20315;-78
2022/06/01 13:01:42;;;;;;;;;;;;;;;17.96;100.00;99144.72;5113928;28;19924;-79
2022/06/01 13:04:09;;;;;;;;;;;;;;;18.03;100.00;99141.56;5113815;28;20014;-79
2022/06/01 13:06:50;;;;;;;;;;;;;;;17.80;100.00;99140.16;5113703;28;20382;-78
2022/06/01 13:09:24;;;;;;;;;;;;;;;17.44;100.00;99145.75;5113977;28;19931;-78
2022/06/01 13:12:15;;;;;;;;;;;;;;;17.56;100.00;99142.00;5114865;28;19931;-78
2022/06/01 13:14:44;;;;;;;;;;;;;;;17.45;100.00;99138.06;5114825;28;19946;-78
2022/06/01 13:17:14;;;;;;;;;;;;;;;17.82;100.00;99148.94;5115150;28;19953;-79
2022/06/01 13:20:06;;;;;;;;;;;;;;;18.49;100.00;99133.81;5113840;28;19924;-79
2022/06/01 13:22:56;;;;;;;;;;;;;;;19.05;100.00;99140.38;5111325;28;19993;-79
2022/06/01 13:25:47;;;;;;;;;;;;;;;18.59;100.00;99129.69;5113729;28;19924;-79
2022/06/01 13:28:34;;;;;;;;;;;;;;;19.15;100.00;99136.25;5098783;28;19932;-79
2022/06/01 13:31:06;;;;;;;;;;;;;;;18.97;100.00;99125.00;5114552;28;19945;-79
2022/06/01 13:33:58;;;;;;;;;;;;;;;19.05;100.00;99123.38;5099389;28;19923;-79
2022/06/01 13:36:29;;;;;;;;;;;;;;;19.17;100.00;99132.94;5114550;28;19923;-79
2022/06/01 13:39:02;;;;;;;;;;;;;;;19.03;100.00;99131.59;5114363;28;20240;-79
2022/06/01 13:41:36;;;;;;;;;;;;;;;18.38;100.00;99148.47;5096667;28;19923;-79
2022/06/01 13:44:13;;;;;;;;;;;;;;;18.46;100.00;99135.56;5113592;28;19930;-79
2022/06/01 13:46:44;;;;;;;;;;;;;;;18.69;100.00;99137.69;5114733;28;20027;-79
2022/06/01 13:49:31;;;;;;;;;;;;;;;19.13;100.00;99138.78;5109821;28;20306;-79
2022/06/01 13:52:00;;;;;;;;;;;;;;;18.62;100.00;99131.56;5096031;28;19931;-79
2022/06/01 13:54:34;;;;;;;;;;;;;;;18.29;100.00;99148.44;5112635;28;19967;-79
2022/06/01 13:57:19;;;;;;;;;;;;;;;17.45;100.00;99135.22;5112987;28;19923;-79
2022/06/01 13:59:50;;;;;;;;;;;;;;;17.73;100.00;99150.97;5114413;28;19924;-79